Station History

Weather Underground - logo

Station Historical Data
Daily Summary for January 21, 2018 Units:  Metric    English   Both
« Previous Day
Next Day »
Daily Weekly Monthly Yearly Custom
  High: Low: Average:
Temperature: 14 °C 0.9 °C 6.4 °C
Dew Point: 5.6 °C 0.2 °C 3.2 °C
Humidity: 96 % 52 % 82 %
Wind Speed: 5.6 km/h 0 km/h 0.5 km/h
Wind Gust: 5.6 km/h - -
Wind:- - WNW
Pressure: 1030.4 hPa 1026.3 hPa -
Precipitation: 0.25 mm    
Historical Graphs
 
 
Tabular Data for January 21, 2018
Time Temperature Dew Point Pressure Wind Wind Speed Wind Gust Humidity Rainfall Rate (Hourly)
00:01 1.5 °C 0.7 °C 1026.3 hPa Calm     94 % 0 mm
00:11 1.6 °C 0.7 °C 1026.3 hPa Calm     94 % 0 mm
00:27 1.7 °C 0.9 °C 1026.3 hPa Calm     95 % 0 mm
00:32 1.7 °C 0.9 °C 1026.3 hPa Calm     95 % 0 mm
00:37 1.6 °C 0.9 °C 1026.3 hPa Calm     95 % 0 mm
00:42 1.5 °C 0.8 °C 1026.3 hPa Calm     95 % 0 mm
00:47 1.6 °C 0.8 °C 1026.3 hPa Calm     95 % 0 mm
00:52 1.6 °C 0.9 °C 1026.6 hPa Calm     95 % 0 mm
00:57 1.6 °C 0.8 °C 1026.6 hPa Calm     95 % 0 mm
01:02 1.6 °C 0.7 °C 1026.6 hPa Calm     94 % 0 mm
01:07 1.5 °C 0.8 °C 1026.6 hPa Calm     95 % 0 mm
01:12 1.6 °C 0.9 °C 1026.6 hPa Calm     95 % 0 mm
01:17 1.7 °C 1 °C 1026.6 hPa Calm     95 % 0 mm
01:22 1.9 °C 1.2 °C 1027 hPa Calm     95 % 0 mm
01:27 2.1 °C 1.3 °C 1027 hPa Calm     95 % 0 mm
01:32 2.2 °C 1.4 °C 1026.6 hPa Calm     95 % 0 mm
01:37 2.2 °C 1.4 °C 1026.6 hPa Calm     95 % 0 mm
01:42 2.2 °C 1.4 °C 1026.6 hPa Calm     95 % 0 mm
01:47 2.2 °C 1.5 °C 1026.6 hPa Calm     95 % 0 mm
01:52 2.2 °C 1.4 °C 1026.6 hPa Calm     95 % 0 mm
01:57 2.2 °C 1.5 °C 1027 hPa Calm     95 % 0 mm
02:02 2.3 °C 1.6 °C 1027 hPa Calm     95 % 0 mm
02:07 2.2 °C 1.5 °C 1027 hPa Calm     95 % 0 mm
02:12 2.1 °C 1.4 °C 1027 hPa Calm     95 % 0 mm
02:17 2 °C 1.1 °C 1027 hPa Calm     94 % 0 mm
02:22 1.8 °C 0.9 °C 1027 hPa Calm     94 % 0 mm
02:28 1.8 °C 0.9 °C 1027 hPa Calm     94 % 0 mm
02:32 1.7 °C 0.8 °C 1027 hPa Calm     94 % 0 mm
02:38 1.7 °C 0.8 °C 1027 hPa Calm     94 % 0 mm
02:43 1.6 °C 0.7 °C 1027 hPa Calm     94 % 0 mm
02:48 1.7 °C 0.9 °C 1027 hPa Calm     95 % 0 mm
02:53 1.7 °C 1 °C 1027 hPa Calm     95 % 0 mm
02:58 1.8 °C 1.1 °C 1027.3 hPa Calm     95 % 0 mm
03:03 2 °C 1.3 °C 1027.3 hPa Calm     95 % 0 mm
03:08 2.1 °C 1.4 °C 1027.3 hPa Calm     95 % 0 mm
03:13 2.2 °C 1.5 °C 1027 hPa Calm     95 % 0 mm
03:18 2.3 °C 1.6 °C 1027 hPa Calm     95 % 0 mm
03:23 2.4 °C 1.7 °C 1027 hPa Calm     95 % 0 mm
03:28 2.4 °C 1.7 °C 1027 hPa Calm     95 % 0 mm
03:33 2.4 °C 1.7 °C 1027.3 hPa Calm     95 % 0.25 mm
03:38 2.5 °C 1.8 °C 1027.3 hPa Calm     95 % 0.25 mm
03:43 2.4 °C 1.7 °C 1027 hPa Calm     95 % 0.25 mm
03:44 2.4 °C 1.7 °C 1027.3 hPa Calm     95 % 0.25 mm
03:49 2.4 °C 1.7 °C 1027.3 hPa Calm     95 % 0.25 mm
03:55 2.4 °C 1.7 °C 1027.3 hPa Calm     95 % 0.25 mm
04:00 2.4 °C 1.7 °C 1027.3 hPa Calm     95 % 0.25 mm
04:05 2.4 °C 1.7 °C 1027.3 hPa Calm     95 % 0.25 mm
04:10 2.4 °C 1.7 °C 1027 hPa Calm     95 % 0.25 mm
04:15 2.5 °C 1.8 °C 1027 hPa Calm     95 % 0.25 mm
04:20 2.5 °C 1.6 °C 1027 hPa Calm     94 % 0.25 mm
04:25 2.4 °C 1.6 °C 1027 hPa Calm     94 % 0.25 mm
04:30 2.3 °C 1.4 °C 1027 hPa Calm     94 % 0.25 mm
04:35 2.2 °C 1.3 °C 1027 hPa Calm     94 % 0 mm
04:40 2.1 °C 1.2 °C 1027 hPa Calm     94 % 0 mm
04:45 2 °C 1.1 °C 1027 hPa Calm     94 % 0 mm
04:50 1.8 °C 0.9 °C 1027 hPa Calm     94 % 0 mm
04:55 1.9 °C 1.2 °C 1027 hPa Calm     95 % 0 mm
04:57 1.9 °C 1.2 °C 1027 hPa Calm     95 % 0 mm
05:02 1.9 °C 1.2 °C 1027 hPa Calm     95 % 0 mm
05:07 1.8 °C 1.1 °C 1027.3 hPa Calm     95 % 0 mm
05:12 1.6 °C 0.7 °C 1027.3 hPa SE 1.9 km/h   94 % 0 mm
05:17 1.4 °C 0.6 °C 1027.3 hPa Calm     94 % 0 mm
05:22 1.2 °C 0.4 °C 1027.3 hPa Calm     94 % 0 mm
05:27 1.1 °C 0.3 °C 1027.3 hPa Calm     94 % 0 mm
05:32 1 °C 0.2 °C 1027.3 hPa Calm     94 % 0 mm
05:37 1 °C 0.3 °C 1027.3 hPa Calm     95 % 0 mm
05:42 1.1 °C 0.4 °C 1027.7 hPa Calm     95 % 0 mm
05:47 1.1 °C 0.4 °C 1027.7 hPa Calm     95 % 0 mm
05:52 1.3 °C 0.6 °C 1027.7 hPa Calm     95 % 0 mm
05:58 1.2 °C 0.4 °C 1027.7 hPa Calm     95 % 0 mm
06:03 1.2 °C 0.4 °C 1027.7 hPa Calm     95 % 0 mm
06:08 1.3 °C 0.6 °C 1028 hPa Calm     95 % 0 mm
06:13 1.3 °C 0.6 °C 1028 hPa Calm     95 % 0 mm
06:18 1.4 °C 0.7 °C 1028 hPa Calm     95 % 0 mm
06:23 1.4 °C 0.7 °C 1028 hPa Calm     95 % 0 mm
06:28 1.4 °C 0.9 °C 1028 hPa Calm     96 % 0 mm
06:33 1.3 °C 0.6 °C 1028 hPa Calm     95 % 0 mm
06:38 1.3 °C 0.6 °C 1028 hPa Calm     95 % 0 mm
06:43 1.2 °C 0.4 °C 1028 hPa Calm     95 % 0 mm
06:48 1.1 °C 0.4 °C 1028 hPa Calm     95 % 0 mm
06:53 1.1 °C 0.4 °C 1028 hPa Calm     95 % 0 mm
06:58 1 °C 0.3 °C 1028 hPa Calm     95 % 0 mm
07:03 1.1 °C 0.3 °C 1028 hPa Calm     95 % 0 mm
07:08 0.9 °C 0.2 °C 1028 hPa Calm     95 % 0 mm
07:13 1.1 °C 0.3 °C 1028 hPa Calm     95 % 0 mm
07:18 1 °C 0.4 °C 1028.3 hPa Calm     96 % 0 mm
07:23 1 °C 0.3 °C 1028 hPa Calm     95 % 0 mm
07:28 1 °C 0.4 °C 1028 hPa Calm     96 % 0 mm
07:33 1 °C 0.4 °C 1028.3 hPa Calm     96 % 0 mm
07:38 1.1 °C 0.6 °C 1028.3 hPa Calm     96 % 0 mm
07:43 1.2 °C 0.6 °C 1028.3 hPa Calm     96 % 0 mm
07:48 1.3 °C 0.7 °C 1028.3 hPa Calm     96 % 0 mm
07:53 1.5 °C 0.9 °C 1028.3 hPa Calm     96 % 0 mm
07:58 1.7 °C 1.2 °C 1028.7 hPa Calm     96 % 0 mm
08:03 2.3 °C 1.7 °C 1028.7 hPa Calm     96 % 0 mm
08:09 2.9 °C 2.4 °C 1028.7 hPa Calm     96 % 0 mm
08:14 3.2 °C 2.7 °C 1028.7 hPa Calm     96 % 0 mm
08:18 3.5 °C 2.9 °C 1029 hPa Calm     96 % 0 mm
08:23 3.8 °C 3.3 °C 1029 hPa Calm     96 % 0 mm
08:28 3.9 °C 3.4 °C 1029 hPa Calm     96 % 0 mm
08:33 4.3 °C 3.7 °C 1029 hPa Calm     96 % 0 mm
08:38 4.6 °C 4 °C 1029.3 hPa Calm     96 % 0 mm
08:43 5 °C 4.4 °C 1029.3 hPa Calm     96 % 0 mm
08:48 5.1 °C 4.2 °C 1029.3 hPa Calm     94 % 0 mm
08:53 5.3 °C 4.4 °C 1029.7 hPa Calm     94 % 0 mm
08:58 5.7 °C 4.4 °C 1029.7 hPa Calm     92 % 0 mm
09:03 5.9 °C 4.4 °C 1029.7 hPa Calm     90 % 0 mm
09:08 6.3 °C 4.6 °C 1029.7 hPa Calm     89 % 0 mm
09:13 6.7 °C 4.7 °C 1030 hPa Calm     87 % 0 mm
09:18 7 °C 5 °C 1030 hPa Calm     87 % 0 mm
09:23 7.3 °C 5.3 °C 1030 hPa Calm     87 % 0 mm
09:28 7.6 °C 5 °C 1030 hPa Calm     84 % 0 mm
09:33 7.8 °C 4.9 °C 1030 hPa NNW 1.9 km/h   82 % 0 mm
09:34 7.8 °C 4.9 °C 1030 hPa NNW 1.9 km/h   82 % 0 mm
09:39 8.1 °C 5.2 °C 1030.4 hPa Calm   0.2 km/h 82 % 0 mm
09:44 8.3 °C 5.1 °C 1030.4 hPa NW 1.9 km/h 1.9 km/h 80 % 0 mm
09:49 8.4 °C 4.7 °C 1030.4 hPa Calm     77 % 0 mm
10:47 11.1 °C 5.6 °C 1030.4 hPa Calm   0.2 km/h 69 % 0 mm
10:52 11.1 °C 5 °C 1030.4 hPa WNW 1.9 km/h   66 % 0 mm
10:57 11.1 °C 4.8 °C 1030 hPa NW 1.9 km/h 1.9 km/h 65 % 0 mm
11:02 11.2 °C 4.8 °C 1030.4 hPa Calm     65 % 0 mm
11:07 11.4 °C 5.5 °C 1030.4 hPa Calm     67 % 0 mm
11:12 11.4 °C 5.1 °C 1030 hPa Calm     65 % 0 mm
11:17 11.3 °C 5 °C 1030 hPa NNW 3.7 km/h 3.7 km/h 65 % 0 mm
11:22 11.7 °C 5.1 °C 1030 hPa Calm     64 % 0 mm
11:27 11.8 °C 4.7 °C 1030 hPa NNW 1.9 km/h   62 % 0 mm
11:32 11.8 °C 4.8 °C 1030 hPa NW 1.9 km/h 1.9 km/h 62 % 0 mm
11:37 11.8 °C 4.7 °C 1029.7 hPa WNW 1.9 km/h 1.9 km/h 62 % 0 mm
11:42 11.8 °C 5 °C 1029.7 hPa Calm     63 % 0 mm
11:47 12 °C 4.9 °C 1029.7 hPa NW 1.6 km/h 1.6 km/h 62 % 0 mm
11:52 12 °C 4.9 °C 1029.7 hPa Calm     62 % 0 mm
11:57 12.1 °C 5.2 °C 1029.7 hPa NW 4.8 km/h 4.8 km/h 63 % 0 mm
12:07 12.2 °C 5.2 °C 1029.3 hPa Calm     62 % 0 mm
12:12 12.2 °C 4.9 °C 1029.3 hPa WNW 1.9 km/h 1.9 km/h 61 % 0 mm
12:17 12.2 °C 4.9 °C 1029.3 hPa WNW 3.7 km/h 3.7 km/h 61 % 0 mm
12:22 12.2 °C 4.9 °C 1029.3 hPa NW 3.7 km/h 3.7 km/h 61 % 0 mm
12:27 12.4 °C 4.6 °C 1029 hPa WNW 1.9 km/h 1.9 km/h 59 % 0 mm
12:32 12.4 °C 4.7 °C 1029 hPa North 3.7 km/h 3.7 km/h 59 % 0 mm
12:37 12.5 °C 4.7 °C 1029 hPa NW 1.6 km/h 1.6 km/h 59 % 0 mm
12:42 12.6 °C 4.8 °C 1029 hPa Calm     59 % 0 mm
12:52 12.8 °C 4.7 °C 1028.7 hPa West 3.7 km/h 3.7 km/h 58 % 0 mm
12:57 12.9 °C 4.3 °C 1028.7 hPa NW 1.9 km/h 1.9 km/h 56 % 0 mm
13:02 13.1 °C 4.3 °C 1028.3 hPa SSE 3.7 km/h 3.7 km/h 55 % 0 mm
13:07 13.2 °C 4.8 °C 1028.7 hPa NW 1.9 km/h 1.9 km/h 57 % 0 mm
13:12 13.4 °C 4.5 °C 1028.3 hPa Calm     55 % 0 mm
13:17 13.6 °C 4.4 °C 1028.3 hPa NW 1.9 km/h 1.9 km/h 54 % 0 mm
13:22 13.7 °C 5.3 °C 1028 hPa SE 3.7 km/h 3.7 km/h 57 % 0 mm
13:27 13.9 °C 4.7 °C 1028 hPa NW 3.7 km/h 3.7 km/h 54 % 0 mm
13:32 13.8 °C 4.1 °C 1028 hPa ENE 3.7 km/h   52 % 0 mm
13:37 13.9 °C 4.2 °C 1028 hPa North 1.6 km/h 1.6 km/h 52 % 0 mm
13:48 13.9 °C 4.5 °C 1028 hPa SSE 3.7 km/h 3.7 km/h 53 % 0 mm
13:52 14 °C 4.6 °C 1028 hPa North 1.6 km/h 1.6 km/h 53 % 0 mm
13:58 13.7 °C 4 °C 1028 hPa Calm     52 % 0 mm
14:03 13.6 °C 4.4 °C 1027.7 hPa SSW 5.6 km/h 5.6 km/h 54 % 0 mm
14:08 13.7 °C 4.3 °C 1028 hPa NW 3.2 km/h 3.2 km/h 53 % 0 mm
14:12 13.4 °C 4.3 °C 1028 hPa WSW 1.9 km/h 1.9 km/h 54 % 0 mm
14:17 13.4 °C 4.3 °C 1027.7 hPa SW 1.9 km/h 1.9 km/h 54 % 0 mm
14:22 13.4 °C 4.3 °C 1027.7 hPa NW 3.7 km/h 3.7 km/h 54 % 0 mm
14:27 13.3 °C 4.2 °C 1027.7 hPa WNW 5.6 km/h 5.6 km/h 54 % 0 mm
14:32 13.4 °C 4.3 °C 1027.7 hPa Calm     54 % 0 mm
14:37 13.5 °C 3.8 °C 1027.7 hPa Calm     52 % 0 mm
14:42 13.4 °C 4.3 °C 1027.7 hPa South 3.7 km/h   54 % 0 mm
14:47 13.4 °C 4 °C 1027.7 hPa NNW 1.9 km/h   53 % 0 mm
14:52 13.3 °C 4.2 °C 1027.7 hPa South 1.9 km/h 1.9 km/h 54 % 0 mm
15:02 13.2 °C 4.1 °C 1027.7 hPa Calm     54 % 0 mm
15:07 13.3 °C 4.4 °C 1027.7 hPa WSW 1.9 km/h   55 % 0 mm
15:12 13.2 °C 4.6 °C 1027.7 hPa NW 1.6 km/h 1.6 km/h 56 % 0 mm
15:22 13 °C 4.4 °C 1027.7 hPa NW 3.7 km/h 3.7 km/h 56 % 0 mm
15:27 12.9 °C 4.1 °C 1027.7 hPa WNW 1.9 km/h 2.1 km/h 55 % 0 mm
15:32 12.8 °C 4.2 °C 1027.7 hPa Calm     56 % 0 mm
15:37 12.8 °C 4.4 °C 1027.7 hPa NW 1.9 km/h 1.9 km/h 57 % 0 mm
15:42 12.7 °C 4.4 °C 1028 hPa NW 3.7 km/h 3.7 km/h 57 % 0 mm
15:47 12.7 °C 4.7 °C 1028 hPa Calm     58 % 0 mm
15:52 12.7 °C 4.6 °C 1028 hPa Calm     58 % 0 mm
15:57 12.7 °C 4.3 °C 1028 hPa NW 3.7 km/h 3.7 km/h 57 % 0 mm
16:02 12.6 °C 4.3 °C 1028 hPa Calm     57 % 0 mm
16:07 12.5 °C 3.7 °C 1028 hPa Calm     55 % 0 mm
16:12 12.4 °C 4.2 °C 1028 hPa Calm     57 % 0 mm
16:17 12.4 °C 4.3 °C 1028 hPa Calm     58 % 0 mm
16:22 12.3 °C 4.2 °C 1028 hPa Calm     58 % 0 mm
16:27 12.2 °C 4.6 °C 1028 hPa WNW 5.6 km/h 5.6 km/h 60 % 0 mm
16:32 12 °C 4.7 °C 1028 hPa NW 3.7 km/h   61 % 0 mm
16:37 11.8 °C 4.8 °C 1028 hPa Calm     62 % 0 mm
16:42 11.7 °C 5.1 °C 1028 hPa Calm     64 % 0 mm
16:47 11.4 °C 5.1 °C 1028 hPa Calm     65 % 0 mm
16:52 11.1 °C 5.2 °C 1028.3 hPa Calm     67 % 0 mm
16:57 10.8 °C 5.1 °C 1028 hPa Calm     68 % 0 mm
17:02 10.6 °C 4.9 °C 1028 hPa Calm     68 % 0 mm
17:07 10.4 °C 5 °C 1028.3 hPa Calm     69 % 0 mm
17:12 10.3 °C 4.8 °C 1028.3 hPa Calm     69 % 0 mm
17:17 10.1 °C 4.7 °C 1028.3 hPa Calm     69 % 0 mm
17:22 9.9 °C 4.7 °C 1028.3 hPa Calm     70 % 0 mm
17:27 9.8 °C 4.8 °C 1028.3 hPa Calm     71 % 0 mm
17:32 9.5 °C 4.7 °C 1028.3 hPa Calm     72 % 0 mm
17:37 9.3 °C 4.9 °C 1028.3 hPa Calm     74 % 0 mm
17:42 9 °C 4.6 °C 1028.3 hPa Calm     74 % 0 mm
17:47 8.7 °C 4.6 °C 1028.3 hPa Calm     75 % 0 mm
17:53 8.6 °C 4.8 °C 1028.7 hPa Calm     77 % 0 mm
17:58 8.3 °C 4.6 °C 1028.7 hPa Calm     77 % 0 mm
18:03 8.1 °C 4.5 °C 1028.7 hPa Calm     78 % 0 mm
18:08 7.9 °C 4.4 °C 1028.7 hPa Calm     79 % 0 mm
18:13 7.8 °C 4.6 °C 1028.7 hPa Calm     80 % 0 mm
18:18 7.6 °C 4.4 °C 1028.7 hPa Calm     80 % 0 mm
18:23 7.6 °C 4.6 °C 1028.7 hPa Calm     81 % 0 mm
18:28 7.8 °C 4.6 °C 1028.7 hPa Calm     80 % 0 mm
18:33 7.8 °C 4.6 °C 1028.7 hPa Calm     80 % 0 mm
18:43 7.5 °C 4.4 °C 1028.7 hPa Calm     81 % 0 mm
18:48 7.3 °C 4.4 °C 1028.7 hPa Calm     82 % 0 mm
18:53 7.2 °C 4.3 °C 1029 hPa Calm     82 % 0 mm
19:03 7.3 °C 4.6 °C 1029 hPa Calm     83 % 0 mm
19:08 7.2 °C 4.5 °C 1029 hPa Calm     83 % 0 mm
19:13 7.1 °C 4.6 °C 1029 hPa Calm     84 % 0 mm
19:18 6.9 °C 4.4 °C 1029 hPa Calm     84 % 0 mm
19:23 6.9 °C 4.6 °C 1029 hPa Calm     85 % 0 mm
19:28 6.8 °C 4.5 °C 1029 hPa Calm     85 % 0 mm
19:33 6.8 °C 4.4 °C 1029 hPa Calm     85 % 0 mm
19:38 6.7 °C 4.3 °C 1029 hPa Calm     85 % 0 mm
19:48 6.7 °C 4.7 °C 1029 hPa Calm     87 % 0 mm
19:53 6.7 °C 4.7 °C 1029.3 hPa Calm     87 % 0 mm
19:58 6.7 °C 4.7 °C 1029.3 hPa Calm     87 % 0 mm
20:08 6.8 °C 4.9 °C 1029.3 hPa Calm     88 % 0 mm
20:13 6.8 °C 4.9 °C 1029.3 hPa Calm     88 % 0 mm
20:18 6.8 °C 5 °C 1029.3 hPa Calm     88 % 0 mm
20:23 6.8 °C 5 °C 1029.3 hPa Calm     88 % 0 mm
20:28 6.8 °C 5 °C 1029.3 hPa Calm     88 % 0 mm
20:33 6.8 °C 5 °C 1029.3 hPa Calm     88 % 0 mm
20:38 6.9 °C 5.1 °C 1029.3 hPa Calm     88 % 0 mm
20:43 7.1 °C 4.9 °C 1029.3 hPa Calm     86 % 0 mm
20:48 7.2 °C 5.2 °C 1029.3 hPa Calm     87 % 0 mm
20:53 7.2 °C 5.1 °C 1029.3 hPa Calm     86 % 0 mm
20:58 7.2 °C 5.1 °C 1029.3 hPa Calm     86 % 0 mm
21:03 7.1 °C 5.1 °C 1029.7 hPa Calm     87 % 0 mm
21:08 6.9 °C 4.9 °C 1029.7 hPa Calm     87 % 0 mm
21:13 6.8 °C 4.9 °C 1029.7 hPa Calm     88 % 0 mm
21:18 6.7 °C 5 °C 1029.7 hPa Calm     89 % 0 mm
21:23 6.4 °C 4.7 °C 1029.7 hPa Calm     89 % 0 mm
21:28 6.3 °C 4.6 °C 1029.7 hPa Calm     89 % 0 mm
21:38 5.9 °C 4.3 °C 1029.7 hPa Calm     89 % 0 mm
21:43 5.8 °C 4.3 °C 1030 hPa Calm     90 % 0 mm
21:48 5.7 °C 4.2 °C 1029.7 hPa Calm     90 % 0 mm
21:53 5.6 °C 4.1 °C 1030 hPa Calm     90 % 0 mm
21:58 5.4 °C 4.1 °C 1030 hPa Calm     91 % 0 mm
22:09 5.3 °C 4 °C 1030 hPa Calm     91 % 0 mm
22:14 5.3 °C 3.9 °C 1030 hPa Calm     91 % 0 mm
22:19 5.2 °C 3.8 °C 1030 hPa Calm     91 % 0 mm
22:24 5.1 °C 3.9 °C 1030 hPa Calm     92 % 0 mm
22:29 5 °C 3.7 °C 1030 hPa Calm     91 % 0 mm
22:34 4.8 °C 3.5 °C 1030 hPa Calm     91 % 0 mm
22:39 4.7 °C 3.4 °C 1030 hPa Calm     91 % 0 mm
22:49 4.4 °C 3.3 °C 1030 hPa Calm     92 % 0 mm
22:54 4.4 °C 3.2 °C 1030 hPa Calm     92 % 0 mm
22:59 4.3 °C 3.1 °C 1030 hPa Calm     92 % 0 mm
23:04 4.3 °C 3.2 °C 1030 hPa Calm     93 % 0 mm
23:09 4.3 °C 3.2 °C 1029.7 hPa Calm     93 % 0 mm
23:14 4.2 °C 3 °C 1029.7 hPa Calm     92 % 0 mm
23:19 4.1 °C 3 °C 1029.7 hPa Calm     93 % 0 mm
23:24 4.1 °C 3 °C 1029.7 hPa Calm     93 % 0 mm
23:29 4.1 °C 3 °C 1029.7 hPa Calm     93 % 0 mm
23:34 3.8 °C 2.6 °C 1029.7 hPa Calm     92 % 0 mm
23:39 3.7 °C 2.7 °C 1029.7 hPa Calm     93 % 0 mm
23:44 3.7 °C 2.7 °C 1029.7 hPa Calm     93 % 0 mm
23:49 3.7 °C 2.7 °C 1029.7 hPa Calm     93 % 0 mm
23:54 3.6 °C 2.6 °C 1029.7 hPa Calm     93 % 0 mm
23:59 3.6 °C 2.6 °C 1029.7 hPa Calm     93 % 0 mm
Park Place, Exeter, Tulare County, California, USA
Compliments of Weather Underground - 2.5 mb